createdAt,value
2019-06-27T00:02:07.598Z,10.57
2019-06-27T00:04:37.089Z,11.10
2019-06-27T00:07:06.583Z,10.97
2019-06-27T00:09:36.076Z,10.33
2019-06-27T00:12:05.731Z,10.27
2019-06-27T00:14:35.244Z,10.33
2019-06-27T00:17:04.815Z,9.77
2019-06-27T00:19:34.403Z,10.50
2019-06-27T00:22:04.021Z,11.40
2019-06-27T00:24:33.708Z,11.70
2019-06-27T00:27:03.204Z,13.93
2019-06-27T00:29:32.748Z,16.03
2019-06-27T00:32:02.236Z,14.17
2019-06-27T00:34:31.748Z,13.07
2019-06-27T00:37:01.200Z,12.13
2019-06-27T00:39:30.708Z,11.70
2019-06-27T00:42:00.151Z,11.93
2019-06-27T00:44:29.670Z,10.90
2019-06-27T00:46:59.140Z,12.40
2019-06-27T00:49:28.678Z,10.53
2019-06-27T00:51:58.192Z,10.90
2019-06-27T00:54:27.782Z,11.00
2019-06-27T00:57:12.929Z,9.70
2019-06-27T00:59:28.373Z,9.13
2019-06-27T01:01:57.847Z,8.73
2019-06-27T01:04:27.339Z,9.30
2019-06-27T01:06:56.825Z,9.37
2019-06-27T01:09:26.290Z,7.93
2019-06-27T01:11:55.728Z,8.90
2019-06-27T01:14:25.233Z,9.27
2019-06-27T01:16:54.702Z,8.30
2019-06-27T01:19:24.233Z,8.73
2019-06-27T01:21:53.681Z,8.50
2019-06-27T01:24:23.180Z,8.43
2019-06-27T01:26:52.628Z,8.70
2019-06-27T01:29:22.159Z,9.77
2019-06-27T01:31:51.603Z,8.60
2019-06-27T01:34:21.129Z,8.10
2019-06-27T01:36:50.608Z,8.37
2019-06-27T01:39:20.108Z,7.80
2019-06-27T01:41:49.639Z,8.83
2019-06-27T01:44:42.674Z,9.23
2019-06-27T01:47:12.135Z,8.23
2019-06-27T01:49:42.438Z,9.00
2019-06-27T01:52:11.925Z,8.67
2019-06-27T01:54:41.434Z,9.70
2019-06-27T01:57:10.883Z,10.23
2019-06-27T01:59:40.405Z,17.40
2019-06-27T02:02:09.891Z,15.17
2019-06-27T02:04:39.418Z,16.30
2019-06-27T02:07:08.904Z,19.13
2019-06-27T02:09:38.369Z,16.20
2019-06-27T02:12:07.815Z,9.53
2019-06-27T02:14:37.315Z,8.90
2019-06-27T02:17:06.809Z,9.40
2019-06-27T02:19:36.248Z,9.80
2019-06-27T02:22:05.822Z,9.63
2019-06-27T02:24:35.354Z,8.70
2019-06-27T02:27:04.897Z,9.60
2019-06-27T02:29:34.365Z,8.70
2019-06-27T02:32:03.873Z,8.60
2019-06-27T02:34:33.367Z,9.63
2019-06-27T02:37:02.856Z,9.80
2019-06-27T02:39:32.323Z,9.40
2019-06-27T02:42:01.833Z,9.60
2019-06-27T02:44:31.316Z,8.90
2019-06-27T02:47:00.873Z,8.00
2019-06-27T02:49:30.356Z,9.80
2019-06-27T02:51:59.843Z,10.50
2019-06-27T02:54:29.308Z,12.47
2019-06-27T02:56:59.142Z,10.70
2019-06-27T02:59:28.684Z,10.80
2019-06-27T03:01:58.174Z,10.00
2019-06-27T03:04:27.620Z,10.50
2019-06-27T03:06:57.104Z,10.67
2019-06-27T03:09:26.553Z,11.00
2019-06-27T03:11:59.953Z,11.80
2019-06-27T03:14:27.191Z,12.80
2019-06-27T03:16:56.672Z,11.80
2019-06-27T03:19:26.156Z,10.00
2019-06-27T03:21:55.632Z,11.30
2019-06-27T03:24:25.116Z,12.10
2019-06-27T03:26:54.638Z,21.40
2019-06-27T03:29:24.164Z,22.50
2019-06-27T03:31:53.664Z,19.40
2019-06-27T03:34:23.186Z,14.90
2019-06-27T03:36:52.661Z,11.90
2019-06-27T03:39:22.175Z,11.70
2019-06-27T03:41:51.643Z,12.00
2019-06-27T03:44:21.120Z,11.43
2019-06-27T03:46:50.625Z,10.13
2019-06-27T03:49:20.074Z,10.97
2019-06-27T03:51:49.592Z,10.50
2019-06-27T03:54:19.085Z,10.77
2019-06-27T03:56:48.581Z,13.10
2019-06-27T03:59:18.064Z,12.10
2019-06-27T04:01:47.674Z,14.13
2019-06-27T04:04:17.195Z,11.63
2019-06-27T04:06:46.667Z,13.63
2019-06-27T04:09:16.123Z,14.63
2019-06-27T04:11:45.670Z,11.90
2019-06-27T04:14:15.174Z,11.13
2019-06-27T04:16:48.740Z,12.40
2019-06-27T04:19:15.845Z,14.20
2019-06-27T04:21:45.324Z,12.50
2019-06-27T04:24:14.828Z,14.07
2019-06-27T04:26:44.548Z,10.40
2019-06-27T04:29:32.118Z,10.07
2019-06-27T04:31:45.480Z,10.40
2019-06-27T04:34:19.349Z,10.27
2019-06-27T04:36:46.088Z,10.33
2019-06-27T04:39:15.622Z,8.80
2019-06-27T04:41:45.098Z,10.03
2019-06-27T04:44:14.555Z,11.50
2019-06-27T04:46:44.033Z,11.50
2019-06-27T04:49:14.085Z,17.33
2019-06-27T04:51:43.642Z,11.50
2019-06-27T04:54:13.141Z,9.97
2019-06-27T04:56:42.609Z,9.47
2019-06-27T04:59:12.262Z,9.13
2019-06-27T05:01:41.742Z,9.73
2019-06-27T05:04:11.208Z,10.70
2019-06-27T05:06:41.002Z,10.10
2019-06-27T05:09:10.468Z,9.60
2019-06-27T05:11:40.009Z,9.83
2019-06-27T05:14:09.470Z,9.20
2019-06-27T05:16:38.953Z,9.23
2019-06-27T05:19:08.452Z,9.50
2019-06-27T05:21:37.928Z,11.30
2019-06-27T05:24:07.500Z,11.20
2019-06-27T05:26:37.058Z,10.57
2019-06-27T05:29:06.532Z,9.80
2019-06-27T05:31:35.995Z,9.97
2019-06-27T05:34:05.639Z,9.40
2019-06-27T05:36:35.350Z,9.33
2019-06-27T05:39:06.216Z,9.20
2019-06-27T05:41:35.675Z,9.00
2019-06-27T05:44:05.187Z,9.20
2019-06-27T05:46:34.682Z,9.47
2019-06-27T05:49:04.262Z,8.73
2019-06-27T05:51:33.696Z,8.33
2019-06-27T05:54:05.308Z,9.33
2019-06-27T05:56:34.827Z,8.10
2019-06-27T05:59:04.366Z,8.80
2019-06-27T06:01:33.845Z,8.67
2019-06-27T06:04:03.350Z,8.47
2019-06-27T06:06:32.977Z,8.83
2019-06-27T06:09:02.459Z,8.40
2019-06-27T06:11:32.014Z,9.70
2019-06-27T06:14:01.542Z,9.17
2019-06-27T06:16:31.032Z,9.13
2019-06-27T06:19:00.559Z,8.80
2019-06-27T06:21:30.034Z,8.93
2019-06-27T06:23:59.565Z,8.87
2019-06-27T06:26:29.054Z,9.40
2019-06-27T06:28:58.579Z,9.23
2019-06-27T06:31:28.165Z,9.20
2019-06-27T06:33:57.943Z,8.83
2019-06-27T06:36:27.616Z,9.20
2019-06-27T06:38:57.283Z,8.57
2019-06-27T06:41:26.754Z,9.17
2019-06-27T06:43:56.231Z,8.93
2019-06-27T06:46:25.658Z,9.20
2019-06-27T06:48:55.246Z,8.63
2019-06-27T06:51:24.719Z,10.97
2019-06-27T06:53:54.195Z,9.60
2019-06-27T06:56:23.604Z,8.10
2019-06-27T06:58:53.081Z,8.30
2019-06-27T07:01:22.525Z,9.00
2019-06-27T07:03:51.994Z,9.03
2019-06-27T07:06:21.431Z,9.90
2019-06-27T07:08:50.984Z,8.90
2019-06-27T07:11:20.722Z,9.50
2019-06-27T07:13:50.216Z,9.77
2019-06-27T07:16:19.670Z,9.10
2019-06-27T07:18:49.161Z,10.13
2019-06-27T07:21:18.660Z,9.43
2019-06-27T07:23:48.125Z,9.57
2019-06-27T07:26:17.684Z,9.33
2019-06-27T07:28:47.170Z,9.37
2019-06-27T07:31:18.153Z,8.23
2019-06-27T07:33:48.143Z,9.97
2019-06-27T07:36:17.716Z,9.30
2019-06-27T07:38:47.500Z,8.90
2019-06-27T07:41:17.168Z,9.67
2019-06-27T07:43:46.526Z,10.73
2019-06-27T07:46:25.212Z,10.50
2019-06-27T07:48:47.153Z,10.60
2019-06-27T07:51:16.656Z,9.37
2019-06-27T07:53:46.119Z,9.20
2019-06-27T07:56:15.594Z,10.33
2019-06-27T07:58:45.029Z,9.30
2019-06-27T08:01:14.511Z,9.60
2019-06-27T08:03:43.980Z,10.50
2019-06-27T08:06:13.517Z,9.77
2019-06-27T08:08:43.080Z,11.00
2019-06-27T08:11:12.815Z,9.80
2019-06-27T08:13:42.231Z,10.03
2019-06-27T08:16:11.774Z,9.50
2019-06-27T08:18:41.235Z,10.00
2019-06-27T08:21:10.830Z,8.67
2019-06-27T08:23:41.771Z,9.20
2019-06-27T08:26:11.437Z,9.33
2019-06-27T08:28:40.886Z,9.50
2019-06-27T08:31:10.409Z,8.80
2019-06-27T08:33:40.180Z,10.13
2019-06-27T08:36:09.697Z,10.50
2019-06-27T08:38:39.140Z,9.70
2019-06-27T08:41:08.605Z,9.63
2019-06-27T08:43:38.096Z,10.60
2019-06-27T08:46:07.614Z,10.10
2019-06-27T08:48:37.091Z,9.27
2019-06-27T08:51:06.740Z,8.97
2019-06-27T08:53:36.175Z,9.47
2019-06-27T08:56:05.854Z,9.10
2019-06-27T08:58:35.264Z,10.10
2019-06-27T09:01:04.780Z,9.67
2019-06-27T09:03:34.300Z,9.67
2019-06-27T09:06:03.817Z,10.03
2019-06-27T09:08:33.294Z,10.03
2019-06-27T09:11:02.768Z,10.00
2019-06-27T09:13:32.544Z,10.60
2019-06-27T09:16:02.522Z,10.27
2019-06-27T09:18:31.968Z,9.30
2019-06-27T09:21:02.030Z,9.93
2019-06-27T09:23:31.722Z,9.90
2019-06-27T09:26:01.301Z,10.00
2019-06-27T09:28:30.792Z,8.97
2019-06-27T09:31:00.308Z,9.73
2019-06-27T09:33:29.750Z,10.17
2019-06-27T09:35:59.216Z,9.30
2019-06-27T09:38:28.694Z,8.50
2019-06-27T09:40:58.146Z,10.93
2019-06-27T09:43:27.605Z,10.70
2019-06-27T09:45:57.174Z,8.83
2019-06-27T09:48:26.653Z,9.93
2019-06-27T09:50:56.122Z,9.00
2019-06-27T09:53:25.569Z,10.67
2019-06-27T09:55:55.159Z,10.13
2019-06-27T09:58:24.647Z,10.20
2019-06-27T10:00:54.110Z,9.87
2019-06-27T10:03:23.591Z,10.30
2019-06-27T10:05:53.393Z,10.57
2019-06-27T10:08:22.847Z,10.27
2019-06-27T10:10:52.305Z,10.40
2019-06-27T10:13:21.829Z,10.93
2019-06-27T10:15:51.278Z,11.60
2019-06-27T10:18:21.058Z,11.37
2019-06-27T10:20:50.524Z,13.13
2019-06-27T10:23:20.015Z,13.60
2019-06-27T10:25:49.776Z,13.67
2019-06-27T10:28:19.250Z,12.13
2019-06-27T10:30:49.410Z,13.90
2019-06-27T10:33:19.081Z,14.20
2019-06-27T10:35:48.738Z,13.40
2019-06-27T10:38:18.284Z,13.53
2019-06-27T10:40:47.767Z,13.83
2019-06-27T10:43:17.267Z,14.43
2019-06-27T10:45:46.717Z,12.77
2019-06-27T10:48:16.218Z,15.33
2019-06-27T10:50:46.615Z,13.30
2019-06-27T10:53:16.273Z,12.70
2019-06-27T10:55:45.710Z,13.77
2019-06-27T10:58:15.177Z,14.10
2019-06-27T11:00:44.774Z,13.73
2019-06-27T11:03:16.102Z,13.43
2019-06-27T11:05:45.422Z,13.67
2019-06-27T11:08:14.905Z,13.10
2019-06-27T11:10:44.339Z,12.57
2019-06-27T11:13:13.838Z,12.60
2019-06-27T11:15:43.431Z,14.90
2019-06-27T11:18:12.890Z,15.00
2019-06-27T11:20:42.411Z,14.43
2019-06-27T11:23:11.901Z,13.13
2019-06-27T11:25:41.363Z,13.97
2019-06-27T11:28:10.844Z,13.10
2019-06-27T11:30:40.340Z,14.07
2019-06-27T11:33:10.088Z,13.13
2019-06-27T11:35:39.522Z,12.30
2019-06-27T11:38:09.333Z,13.37
2019-06-27T11:40:39.627Z,13.77
2019-06-27T11:43:10.248Z,13.20
2019-06-27T11:45:39.779Z,13.00
2019-06-27T11:48:09.316Z,13.33
2019-06-27T11:50:38.970Z,13.30
2019-06-27T11:53:08.487Z,13.13
2019-06-27T11:55:38.083Z,12.33
2019-06-27T11:58:07.562Z,12.77
2019-06-27T12:00:37.089Z,14.03
2019-06-27T12:03:06.603Z,13.93
2019-06-27T12:05:36.095Z,12.40
2019-06-27T12:08:05.756Z,11.70
2019-06-27T12:10:35.262Z,12.43
2019-06-27T12:13:04.707Z,13.13
2019-06-27T12:15:34.200Z,10.97
2019-06-27T12:18:03.645Z,11.17
2019-06-27T12:20:33.277Z,11.87
2019-06-27T12:23:02.746Z,11.30
2019-06-27T12:25:32.246Z,10.80
2019-06-27T12:28:01.741Z,10.37
2019-06-27T12:30:31.244Z,11.50
2019-06-27T12:33:00.675Z,11.77
2019-06-27T12:35:30.328Z,11.33
2019-06-27T12:37:59.870Z,9.90
2019-06-27T12:40:29.342Z,10.33
2019-06-27T12:42:58.976Z,11.50
2019-06-27T12:45:28.592Z,10.17
2019-06-27T12:48:06.070Z,10.50
2019-06-27T12:50:29.349Z,10.30
2019-06-27T12:52:58.799Z,10.00
2019-06-27T12:55:28.327Z,11.30
2019-06-27T12:57:57.822Z,10.93
2019-06-27T13:00:27.743Z,11.40
2019-06-27T13:02:57.187Z,11.80
2019-06-27T13:05:26.674Z,11.93
2019-06-27T13:07:56.215Z,11.00
2019-06-27T13:10:30.345Z,10.37
2019-06-27T13:12:59.790Z,11.07
2019-06-27T13:15:29.388Z,11.00
2019-06-27T13:17:59.030Z,10.93
2019-06-27T13:20:28.530Z,10.90
2019-06-27T13:22:58.003Z,12.20
2019-06-27T13:25:27.530Z,12.30
2019-06-27T13:27:57.024Z,12.00
2019-06-27T13:30:26.733Z,11.90
2019-06-27T13:32:56.240Z,12.07
2019-06-27T13:35:25.760Z,11.77
2019-06-27T13:37:55.352Z,12.37
2019-06-27T13:40:24.936Z,12.33
2019-06-27T13:42:55.685Z,12.70
2019-06-27T13:45:26.595Z,11.17
2019-06-27T13:47:56.429Z,11.37
2019-06-27T13:50:26.002Z,12.17
2019-06-27T13:52:55.480Z,10.87
2019-06-27T13:55:24.964Z,11.40
2019-06-27T13:57:57.496Z,11.60
2019-06-27T14:00:42.273Z,11.63
2019-06-27T14:03:11.722Z,11.67
2019-06-27T14:05:41.317Z,11.60
2019-06-27T14:08:10.778Z,12.40
2019-06-27T14:10:40.284Z,12.63
2019-06-27T14:13:09.871Z,13.10
2019-06-27T14:15:39.407Z,13.00
2019-06-27T14:18:08.865Z,10.80
2019-06-27T14:20:38.370Z,12.43
2019-06-27T14:23:07.927Z,12.00
2019-06-27T14:25:37.581Z,13.47
2019-06-27T14:28:07.061Z,12.00
2019-06-27T14:30:36.616Z,11.20
2019-06-27T14:33:06.107Z,11.20
2019-06-27T14:35:35.599Z,10.30
2019-06-27T14:38:05.044Z,10.77
2019-06-27T14:40:34.635Z,11.63
2019-06-27T14:43:04.155Z,10.90
2019-06-27T14:45:33.605Z,10.63
2019-06-27T14:48:03.268Z,11.73
2019-06-27T14:50:32.698Z,11.80
2019-06-27T14:53:02.177Z,11.07
2019-06-27T14:55:31.649Z,10.43
2019-06-27T14:58:01.087Z,10.53
2019-06-27T15:00:30.656Z,9.80
2019-06-27T15:03:00.163Z,11.13
2019-06-27T15:05:32.906Z,11.43
2019-06-27T15:08:00.812Z,10.93
2019-06-27T15:10:30.263Z,11.20
2019-06-27T15:12:59.851Z,11.60
2019-06-27T15:15:29.376Z,11.27
2019-06-27T15:17:58.848Z,11.90
2019-06-27T15:20:28.546Z,10.73
2019-06-27T15:22:58.143Z,11.80
2019-06-27T15:25:28.538Z,10.60
2019-06-27T15:27:58.286Z,11.07
2019-06-27T15:30:27.792Z,10.47
2019-06-27T15:32:57.253Z,10.90
2019-06-27T15:35:26.700Z,10.10
2019-06-27T15:37:56.213Z,11.40
2019-06-27T15:40:25.650Z,10.27
2019-06-27T15:42:55.160Z,9.87
2019-06-27T15:45:24.827Z,9.70
2019-06-27T15:47:54.324Z,9.10
2019-06-27T15:50:23.804Z,9.70
2019-06-27T15:52:53.302Z,8.80
2019-06-27T15:55:22.799Z,11.00
2019-06-27T15:57:52.379Z,10.93
2019-06-27T16:00:23.446Z,12.20
2019-06-27T16:02:52.948Z,10.80
2019-06-27T16:05:22.487Z,10.20
2019-06-27T16:07:52.106Z,9.40
2019-06-27T16:10:21.880Z,9.57
2019-06-27T16:12:51.414Z,9.17
2019-06-27T16:15:21.352Z,11.07
2019-06-27T16:17:50.948Z,9.47
2019-06-27T16:20:20.723Z,10.10
2019-06-27T16:22:50.182Z,9.40
2019-06-27T16:25:19.700Z,9.77
2019-06-27T16:27:49.290Z,9.83
2019-06-27T16:30:18.950Z,10.40
2019-06-27T16:32:48.444Z,11.30
2019-06-27T16:35:17.916Z,10.67
2019-06-27T16:37:47.385Z,11.30
2019-06-27T16:40:17.182Z,11.73
2019-06-27T16:42:46.694Z,11.00
2019-06-27T16:45:16.552Z,11.00
2019-06-27T16:47:46.030Z,10.53
2019-06-27T16:50:15.673Z,10.20
2019-06-27T16:52:45.218Z,9.30
2019-06-27T16:55:14.856Z,9.87
2019-06-27T16:57:44.872Z,9.53
2019-06-27T17:00:14.375Z,10.10
2019-06-27T17:02:43.856Z,8.40
2019-06-27T17:05:13.415Z,9.73
2019-06-27T17:07:42.869Z,8.40
2019-06-27T17:10:12.531Z,8.90
2019-06-27T17:12:42.016Z,8.53
2019-06-27T17:15:11.738Z,7.97
2019-06-27T17:17:41.206Z,8.50
2019-06-27T17:20:11.129Z,7.70
2019-06-27T17:22:40.655Z,7.80
2019-06-27T17:25:23.081Z,8.33
2019-06-27T17:27:52.509Z,7.30
2019-06-27T17:30:22.079Z,7.10
2019-06-27T17:32:51.580Z,8.10
2019-06-27T17:35:21.123Z,7.17
2019-06-27T17:37:50.554Z,7.57
2019-06-27T17:40:20.390Z,8.00
2019-06-27T17:42:49.829Z,8.10
2019-06-27T17:45:19.432Z,8.17
2019-06-27T17:47:48.890Z,8.10
2019-06-27T17:50:18.467Z,7.67
2019-06-27T17:52:47.943Z,6.90
2019-06-27T17:55:17.451Z,6.10
2019-06-27T17:57:47.370Z,6.37
2019-06-27T18:00:19.362Z,6.60
2019-06-27T18:02:48.843Z,5.73
2019-06-27T18:05:18.773Z,5.50
2019-06-27T18:07:48.447Z,5.40
2019-06-27T18:10:19.434Z,5.00
2019-06-27T18:12:48.923Z,4.23
2019-06-27T18:15:18.398Z,4.50
2019-06-27T18:17:47.998Z,4.07
2019-06-27T18:20:17.721Z,4.17
2019-06-27T18:22:47.178Z,3.10
2019-06-27T18:25:16.670Z,3.50
2019-06-27T18:27:46.131Z,3.60
2019-06-27T18:30:15.886Z,3.43
2019-06-27T18:32:45.446Z,3.17
2019-06-27T18:35:14.901Z,3.73
2019-06-27T18:37:44.368Z,4.10
2019-06-27T18:40:14.275Z,3.90
2019-06-27T18:42:43.746Z,3.13
2019-06-27T18:45:13.414Z,2.73
2019-06-27T18:47:42.907Z,3.10
2019-06-27T18:50:12.375Z,3.07
2019-06-27T18:52:41.829Z,3.13
2019-06-27T18:55:11.437Z,3.17
2019-06-27T18:57:40.881Z,2.53
2019-06-27T19:00:11.160Z,3.03
2019-06-27T19:02:40.646Z,2.50
2019-06-27T19:05:10.544Z,2.97
2019-06-27T19:07:46.053Z,2.60
2019-06-27T19:10:11.591Z,2.40
2019-06-27T19:12:41.076Z,2.30
2019-06-27T19:15:11.236Z,2.33
2019-06-27T19:17:40.692Z,2.87
2019-06-27T19:20:28.336Z,2.40
2019-06-27T19:23:04.573Z,2.43
2019-06-27T19:25:35.429Z,2.30
2019-06-27T19:28:05.335Z,2.30
2019-06-27T19:30:36.424Z,2.80
2019-06-27T19:33:06.003Z,2.37
2019-06-27T19:35:35.472Z,2.60
2019-06-27T19:38:05.039Z,2.87
2019-06-27T19:40:34.529Z,2.23
2019-06-27T19:43:04.011Z,2.97
2019-06-27T19:45:33.538Z,2.53
2019-06-27T19:48:02.998Z,3.63
2019-06-27T19:50:32.427Z,2.80
2019-06-27T19:53:02.280Z,1.93
2019-06-27T19:55:31.773Z,1.83
2019-06-27T19:58:01.226Z,2.80
2019-06-27T20:00:30.697Z,2.40
2019-06-27T20:03:00.161Z,2.37
2019-06-27T20:05:29.633Z,1.87
2019-06-27T20:07:59.160Z,2.33
2019-06-27T20:10:28.806Z,1.70
2019-06-27T20:12:58.344Z,2.20
2019-06-27T20:15:27.826Z,2.20
2019-06-27T20:17:57.332Z,2.60
2019-06-27T20:20:26.897Z,2.20
2019-06-27T20:22:56.398Z,2.03
2019-06-27T20:25:25.897Z,2.20
2019-06-27T20:27:55.460Z,1.97
2019-06-27T20:30:24.980Z,2.20
2019-06-27T20:32:54.487Z,2.40
2019-06-27T20:35:23.944Z,2.27
2019-06-27T20:37:53.447Z,1.93
2019-06-27T20:40:23.324Z,1.90
2019-06-27T20:42:52.789Z,2.07
2019-06-27T20:45:22.615Z,2.00
2019-06-27T20:47:52.119Z,2.10
2019-06-27T20:50:21.557Z,2.40
2019-06-27T20:52:51.030Z,2.60
2019-06-27T20:55:20.478Z,2.73
2019-06-27T20:57:49.976Z,1.70
2019-06-27T21:00:20.317Z,2.00
2019-06-27T21:02:49.838Z,2.13
2019-06-27T21:05:19.313Z,1.87
2019-06-27T21:07:48.880Z,1.77
2019-06-27T21:10:18.652Z,2.17
2019-06-27T21:12:48.154Z,2.00
2019-06-27T21:15:19.694Z,1.77
2019-06-27T21:17:49.166Z,1.70
2019-06-27T21:20:18.666Z,1.97
2019-06-27T21:22:48.139Z,2.03
2019-06-27T21:25:17.644Z,1.97
2019-06-27T21:27:47.138Z,1.60
2019-06-27T21:30:16.968Z,1.80
2019-06-27T21:32:48.409Z,1.67
2019-06-27T21:35:17.562Z,1.57
2019-06-27T21:37:47.043Z,1.80
2019-06-27T21:40:17.429Z,2.50
2019-06-27T21:42:47.286Z,1.50
2019-06-27T21:45:17.143Z,1.90
2019-06-27T21:47:46.665Z,1.87
2019-06-27T21:50:16.294Z,1.63
2019-06-27T21:52:45.758Z,1.50
2019-06-27T21:55:15.209Z,1.77
2019-06-27T21:57:44.721Z,1.97
2019-06-27T22:00:14.642Z,1.73
2019-06-27T22:02:44.188Z,1.57
2019-06-27T22:05:13.924Z,1.70
2019-06-27T22:07:43.417Z,1.50
2019-06-27T22:10:13.354Z,1.60
2019-06-27T22:12:42.827Z,1.77
2019-06-27T22:15:12.274Z,1.83
2019-06-27T22:17:41.793Z,1.90
2019-06-27T22:20:15.619Z,1.80
2019-06-27T22:22:43.602Z,2.00
2019-06-27T22:25:13.705Z,1.90
2019-06-27T22:27:43.185Z,1.70
2019-06-27T22:30:15.250Z,1.30
2019-06-27T22:32:44.822Z,1.70
2019-06-27T22:35:14.828Z,1.53
2019-06-27T22:38:02.079Z,1.50
2019-06-27T22:40:49.150Z,2.00
2019-06-27T22:43:36.391Z,1.70
2019-06-27T22:46:23.567Z,1.50
2019-06-27T22:48:52.382Z,1.70
2019-06-27T22:51:36.198Z,1.43
2019-06-27T22:54:06.135Z,1.43
2019-06-27T22:56:35.564Z,1.70
2019-06-27T22:59:05.043Z,1.60
2019-06-27T23:01:34.530Z,1.60
2019-06-27T23:04:03.983Z,2.00
2019-06-27T23:06:33.485Z,1.70
2019-06-27T23:09:03.011Z,1.90
2019-06-27T23:11:32.430Z,1.77
2019-06-27T23:14:01.939Z,1.73
2019-06-27T23:16:31.369Z,1.97
2019-06-27T23:19:00.972Z,1.57
2019-06-27T23:21:30.430Z,1.67
2019-06-27T23:23:59.893Z,1.53
2019-06-27T23:26:29.403Z,1.60
2019-06-27T23:28:58.867Z,1.53
2019-06-27T23:31:28.313Z,2.00
2019-06-27T23:33:57.895Z,1.97
2019-06-27T23:36:27.331Z,2.07
2019-06-27T23:38:56.841Z,2.07
2019-06-27T23:41:26.264Z,2.07
2019-06-27T23:43:55.710Z,2.37
2019-06-27T23:46:41.837Z,1.70
2019-06-27T23:49:11.794Z,2.20
2019-06-27T23:51:41.330Z,2.53
2019-06-27T23:54:11.700Z,3.80
2019-06-27T23:56:41.173Z,2.67
2019-06-27T23:59:10.644Z,2.50
